AirNav   Duncan Aviation - Near you to keep you flying
 
 1504 users online  

SN10 Belle Plaine Farms Airport
Belle Plaine, Kansas, USA

GOING TO BELLE PLAINE?


FAA INFORMATION EFFECTIVE 15 JULY 2021

Location

FAA Identifier: SN10
Lat/Long: 37-23-44.4150N 097-12-35.4500W
37-23.740250N 097-12.590833W
37.3956708,-97.2098472
(estimated)
Elevation: 1194 ft. / 364 m (estimated)
Variation: 06E (1995)
From city: 4 miles E of BELLE PLAINE, KS
Time zone: UTC -5 (UTC -6 during Standard Time)
Zip code: 67013

Airport Operations

Airport use: Private use. Permission required prior to landing
Activation date: 05/1998
Control tower: no
ARTCC: KANSAS CITY CENTER
FSS: WICHITA FLIGHT SERVICE STATION
Attendance: CONTINUOUS
Wind indicator: yes
Segmented circle: no

Airport Communications

WX AWOS-3 at EGT (10 nm SW): 118.875 (620-326-2470)
WX ASOS at WLD (16 nm SE): 118.025 (620-221-9121)
WX AWOS-3PT at 3AU (18 nm N): 124.175 (316-733-6696)
WX AWOS-3PT at BEC (18 nm N): 119.45 (316-515-7116)
WX ASOS at ICT (19 nm NW): PHONE 316-945-8022

Nearby radio navigation aids

VOR radial/distance  VOR name  Freq  Var
ICTr133/27.5WICHITA VORTAC113.8007E
PERr351/39.0PIONEER VORTAC113.2006E

Airport Services

Fuel available: MOGAS

Runway Information

Runway 1/19

Dimensions: 2500 x 100 ft. / 762 x 30 m
Surface: turf, in fair condition
RUNWAY 1  RUNWAY 19
Latitude: 37-23.537833N37-23.942667N
Longitude: 097-12.637667W097-12.544000W
Elevation: 1194.0 ft.1191.0 ft.
Traffic pattern: leftleft
Runway heading: 004 magnetic, 010 true184 magnetic, 190 true
Obstructions: 30 ft. pline, 100 ft. from runwaynone

Airport Ownership and Management from official FAA records

Ownership: Privately-owned
Owner: BRUCE DOPFEL
1564 EAST 90TH AVE NORTH
BELLE PLAINE, KS 67013
Phone 316-208-1866
Manager: BRUCE DOPFEL
1564 EAST 90TH AVE NORTH
BELLE PLAINE, KS 67013
Phone 316-208-1866

Airport Operational Statistics

Aircraft based on the field: 5
Single engine airplanes: 4
Multi engine airplanes: 1
    
Aircraft operations: 100/year
100% local general aviation

Additional Remarks

MAJOR AIRFRAME AND ENGINE REPAIRS ON RY.
FOR CD CTC WICHITA APCH AT 316-350-1520.

Instrument Procedures

There are no published instrument procedures at SN10.

Some nearby airports with instrument procedures:

KEGT - Wellington Municipal Airport (10 nm SW)
KIAB - Mc Connell Air Force Base (14 nm N)
KCEA - Cessna Aircraft Field Airport (15 nm N)
KWLD - Strother Field Airport (16 nm SE)
3AU - Augusta Municipal Airport (18 nm N)
KBEC - Beech Factory Airport (18 nm N)
KICT - Wichita Dwight D Eisenhower National Airport (19 nm NW)
 
Loc | Ops | Rwys | IFR | FBO | Links
Com | Nav | Svcs | Stats | Notes
Area around SN10 (Belle Plaine Farms Airport)
 
Road maps at: MapQuest Bing Google
 
Aerial photo
No photo
 
Sectional chart

 
Airport distance calculator
Flying to Belle Plaine Farms Airport? Find the distance to fly.

From to SN10

Sunrise and sunset
Times for 05-Aug-2021
 Local
(UTC-5)
 Zulu
(UTC)
Morning civil twilight06:0911:09
Sunrise06:3711:37
Sunset20:3201:32
Evening civil twilight21:0102:01

Current date and time
Zulu (UTC)  05-Aug-2021 15:32:59
Local (UTC-5)  05-Aug-2021 10:32:59
 
METAR
KIAB 
14nm N 
051456Z AUTO 23010KT 10SM FEW150 SCT200 26/17 A3007 RMK AO2 SLP173 T02570171 50002 $
KWLD 
16nm SE 
051454Z AUTO 18008KT 8SM BKN095 OVC110 23/19 A3010 RMK AO2 SLP182 T02330189 50003
K3AU 
18nm N 
051510Z AUTO 20006KT 10SM CLR 27/15 A3008 RMK AO2
KBEC 
18nm N 
051515Z AUTO 22010KT 10SM CLR 26/17 A3007 RMK AO2 LTG DSNT W T02580171
KICT 
19nm NW 
051453Z 21011KT 10SM FEW090 SCT120 BKN180 26/17 A3007 RMK AO2 SLP167 T02610172 50002
KAAO 
21nm N 
051454Z AUTO 20011KT 10SM CLR 27/17 A3007 RMK AO2 SLP170 T02670172 50003
K1K1 
23nm N 
051515Z AUTO 21007KT 10SM CLR 26/17 A3008 RMK AO2 T02580167
TAF
KIAB 
14nm N 
051000Z 0510/0616 18012KT 9999 SCT080 BKN180 QNH3004INS BECMG 0520/0521 17010KT 9999 FEW120 QNH2995INS BECMG 0614/0615 21015KT 9999 SKC QNH2996INS TX31/0520Z TN19/0610Z
KICT 
19nm NW 
051126Z 0512/0612 18005KT P6SM SCT030 BKN100 FM052000 18010KT P6SM FEW060 SCT200 FM060400 16009KT P6SM FEW250
NOTAMs
Click for the latest NOTAMs
NOTAMs are issued by the DoD/FAA and will open in a separate window not controlled by AirNav.

 

 
 

Would you like to see your business listed on this page?

 If your business provides an interesting product or service to pilots, flight crews, aircraft, or users of the Belle Plaine Farms Airport, you should consider listing it here.  To start the listing process, click on the button below
 
Add a business
 

Other Pages about Belle Plaine Farms Airport

Update a link
 
Copyright © AirNav, LLC. All rights reserved. Privacy Policy  Contact